Time;durP1;ratioP1;P1;durP2;ratioP2;P2;SDS_P1;SDS_P2;PMS_P1;PMS_P2;Temp;Humidity;BMP_temperature;BMP_pressure;BME280_temperature;BME280_humidity;BME280_pressure;Samples;Min_cycle;Max_cycle;Signal;HPM_P1;HPM_P2
2023/08/05 00:01:02;;;;;;;2.28;1.83;;;15.10;99.90;;;;;;5037567;28;20197;-94
2023/08/05 00:03:49;;;;;;;6.30;2.33;;;15.10;99.90;;;;;;5032488;28;20268;-95
2023/08/05 00:06:15;;;;;;;5.82;2.10;;;15.00;99.90;;;;;;5037844;28;20206;-95
2023/08/05 00:08:40;;;;;;;4.47;2.00;;;15.00;99.90;;;;;;5390008;23;20267;-92
2023/08/05 00:11:06;;;;;;;2.78;1.98;;;15.00;99.90;;;;;;4996762;28;20555;-93
2023/08/05 00:13:34;;;;;;;3.72;2.30;;;15.00;99.90;;;;;;4996678;28;20184;-93
2023/08/05 00:16:01;;;;;;;2.97;1.73;;;14.90;99.90;;;;;;4980572;28;20187;-93
2023/08/05 00:18:27;;;;;;;3.70;1.90;;;14.80;99.90;;;;;;4980238;28;20274;-93
2023/08/05 00:20:52;;;;;;;4.85;2.25;;;14.80;99.90;;;;;;4980327;28;20258;-93
2023/08/05 00:23:19;;;;;;;7.45;2.40;;;14.80;99.90;;;;;;4980243;28;20211;-93
2023/08/05 00:25:45;;;;;;;5.63;2.25;;;14.70;99.90;;;;;;4975856;28;20243;-92
2023/08/05 00:28:11;;;;;;;3.72;2.33;;;14.70;99.90;;;;;;4961011;28;20522;-93
2023/08/05 00:30:46;;;;;;;3.05;2.22;;;14.80;99.90;;;;;;4978192;28;20188;-92
2023/08/05 00:33:12;;;;;;;4.13;2.30;;;14.70;99.90;;;;;;4960913;28;20172;-92
2023/08/05 00:35:39;;;;;;;3.75;2.20;;;14.70;99.90;;;;;;4960846;28;20540;-93
2023/08/05 00:38:04;;;;;;;7.38;2.65;;;14.60;99.90;;;;;;4963150;28;20188;-91
2023/08/05 00:40:40;;;;;;;3.33;2.40;;;14.60;99.90;;;;;;4979943;28;20572;-92
2023/08/05 00:43:06;;;;;;;5.32;2.40;;;14.60;99.90;;;;;;4979804;28;20208;-92
2023/08/05 00:45:32;;;;;;;5.40;2.78;;;14.50;99.90;;;;;;4980121;28;20180;-91
2023/08/05 00:47:58;;;;;;;3.85;2.63;;;14.50;99.90;;;;;;4979752;28;20176;-91
2023/08/05 00:50:33;;;;;;;5.47;2.70;;;14.50;99.90;;;;;;4979874;28;20180;-92
2023/08/05 00:53:00;;;;;;;3.08;2.20;;;14.40;99.90;;;;;;4979489;28;20172;-91
2023/08/05 00:55:26;;;;;;;5.05;2.20;;;14.40;99.90;;;;;;4980171;28;20207;-90
2023/08/05 00:57:52;;;;;;;6.93;2.30;;;14.50;99.90;;;;;;4996978;28;20196;-88
2023/08/05 01:00:25;;;;;;;6.68;2.40;;;14.50;99.90;;;;;;4979811;28;20191;-90
2023/08/05 01:02:50;;;;;;;6.60;3.15;;;14.50;99.90;;;;;;4979624;28;20290;-90
2023/08/05 01:05:18;;;;;;;5.32;2.38;;;14.50;99.90;;;;;;4979847;28;20267;-89
2023/08/05 01:07:45;;;;;;;3.58;2.17;;;14.40;99.90;;;;;;4979521;28;20176;-89
2023/08/05 01:10:12;;;;;;;4.13;2.50;;;14.40;99.90;;;;;;4979498;28;20262;-90
2023/08/05 01:12:41;;;;;;;3.40;2.50;;;14.50;99.90;;;;;;4978939;28;20199;-89
2023/08/05 01:15:07;;;;;;;4.05;2.42;;;14.40;99.90;;;;;;4996043;28;20175;-89
2023/08/05 01:17:33;;;;;;;7.85;2.63;;;14.40;99.90;;;;;;4978974;28;20562;-89
2023/08/05 01:20:04;;;;;;;7.60;2.85;;;14.40;99.90;;;;;;4979444;28;20570;-89
2023/08/05 01:22:43;;;;;;;3.55;2.38;;;14.30;99.90;;;;;;4979181;28;20282;-89
2023/08/05 01:25:27;;;;;;;3.50;2.22;;;14.30;99.90;;;;;;4978798;28;20183;-89
2023/08/05 01:27:59;;;;;;;4.43;2.67;;;14.40;99.90;;;;;;4978784;28;20267;-89
2023/08/05 01:30:27;;;;;;;4.07;2.40;;;14.30;99.90;;;;;;4995507;28;20479;-89
2023/08/05 01:32:54;;;;;;;3.05;2.50;;;14.30;99.90;;;;;;4978595;28;20180;-89
2023/08/05 01:35:23;;;;;;;3.00;2.70;;;14.30;99.90;;;;;;4978341;28;20191;-90
2023/08/05 01:37:49;;;;;;;2.65;2.45;;;14.30;99.90;;;;;;4979542;28;20195;-91
2023/08/05 01:40:17;;;;;;;5.25;2.85;;;14.30;99.90;;;;;;5015279;28;20175;-91
2023/08/05 01:42:43;;;;;;;4.03;2.78;;;14.30;99.90;;;;;;4998855;28;20533;-91
2023/08/05 01:45:09;;;;;;;7.20;2.65;;;14.20;99.90;;;;;;4998365;28;20183;-91
2023/08/05 01:47:34;;;;;;;3.88;2.40;;;14.20;99.90;;;;;;4998707;28;20176;-92
2023/08/05 01:50:24;;;;;;;4.45;2.65;;;14.20;99.90;;;;;;4998797;28;20598;-91
2023/08/05 01:52:51;;;;;;;4.95;2.70;;;14.20;99.90;;;;;;4998615;28;20179;-90
2023/08/05 01:55:17;;;;;;;4.28;2.60;;;14.10;99.90;;;;;;4998073;28;20591;-90
2023/08/05 01:57:43;;;;;;;5.65;3.20;;;14.20;99.90;;;;;;4998260;28;20222;-91
2023/08/05 02:00:17;;;;;;;4.63;2.90;;;14.10;99.90;;;;;;5015611;28;20626;-91
2023/08/05 02:02:42;;;;;;;3.33;2.45;;;14.10;99.90;;;;;;4998102;28;20257;-91
2023/08/05 02:05:08;;;;;;;5.00;2.75;;;14.20;99.90;;;;;;4998160;28;20266;-90
2023/08/05 02:07:34;;;;;;;6.20;2.90;;;14.20;99.90;;;;;;4998336;28;20183;-90
2023/08/05 02:10:23;;;;;;;4.30;3.05;;;14.20;99.90;;;;;;4979610;28;20231;-90
2023/08/05 02:12:49;;;;;;;5.70;2.78;;;14.20;99.90;;;;;;4996029;28;20259;-90
2023/08/05 02:15:15;;;;;;;7.45;3.30;;;14.10;99.90;;;;;;4978814;28;20262;-90
2023/08/05 02:17:40;;;;;;;6.55;3.08;;;14.10;99.90;;;;;;4978577;28;20211;-90
2023/08/05 02:20:12;;;;;;;4.72;2.70;;;14.10;99.90;;;;;;4978560;28;20180;-90
2023/08/05 02:22:38;;;;;;;6.93;2.90;;;14.10;99.90;;;;;;4978415;28;20206;-91
2023/08/05 02:25:04;;;;;;;3.80;2.92;;;14.10;99.90;;;;;;4978269;28;20183;-91
2023/08/05 02:27:30;;;;;;;5.97;2.88;;;14.10;99.90;;;;;;4978557;28;20248;-91
2023/08/05 02:29:56;;;;;;;4.30;3.00;;;14.00;99.90;;;;;;4978372;28;20224;-88
2023/08/05 02:32:21;;;;;;;5.65;2.65;;;14.00;99.90;;;;;;4978352;28;20492;-91
2023/08/05 02:34:47;;;;;;;6.70;3.13;;;13.90;99.90;;;;;;4978810;28;20179;-91
2023/08/05 02:37:13;;;;;;;6.45;2.83;;;13.80;99.90;;;;;;4978459;28;20187;-90
2023/08/05 02:39:41;;;;;;;4.93;3.10;;;13.80;99.90;;;;;;4962849;28;20201;-90
2023/08/05 02:42:07;;;;;;;4.88;2.60;;;13.70;99.90;;;;;;4963494;28;20239;-90
2023/08/05 02:44:33;;;;;;;5.10;2.50;;;13.70;99.90;;;;;;4982381;28;20216;-91
2023/08/05 02:46:59;;;;;;;6.75;2.70;;;13.70;99.90;;;;;;4982222;28;20188;-91
2023/08/05 02:49:24;;;;;;;6.75;3.22;;;13.70;99.90;;;;;;4982227;28;20618;-91
2023/08/05 02:51:52;;;;;;;5.63;2.83;;;13.70;99.90;;;;;;4981935;28;20178;-90
2023/08/05 02:54:18;;;;;;;5.03;2.97;;;13.60;99.90;;;;;;4981952;28;20175;-90
2023/08/05 02:56:43;;;;;;;6.30;2.63;;;13.60;99.90;;;;;;4982057;28;20187;-90
2023/08/05 02:59:09;;;;;;;3.58;2.85;;;13.60;99.90;;;;;;4982086;28;20179;-90
2023/08/05 03:01:37;;;;;;;4.75;2.35;;;13.60;99.90;;;;;;4981863;28;20214;-90
2023/08/05 03:04:03;;;;;;;4.10;2.50;;;13.70;99.90;;;;;;4981541;28;20250;-91
2023/08/05 03:06:28;;;;;;;4.05;2.95;;;13.70;99.90;;;;;;4981805;28;20657;-90
2023/08/05 03:08:54;;;;;;;11.93;3.25;;;13.70;99.90;;;;;;4971529;28;20228;-91
2023/08/05 03:11:34;;;;;;;6.38;3.00;;;13.70;99.90;;;;;;4962933;28;20177;-91
2023/08/05 03:14:00;;;;;;;4.93;2.88;;;13.70;99.90;;;;;;4962639;28;20180;-91
2023/08/05 03:16:25;;;;;;;6.93;3.63;;;13.70;99.90;;;;;;4962386;28;20191;-91
2023/08/05 03:18:51;;;;;;;4.10;2.92;;;13.70;99.90;;;;;;4962376;28;20181;-91
2023/08/05 03:21:23;;;;;;;4.40;2.85;;;13.80;99.90;;;;;;4962547;28;20216;-91
2023/08/05 03:23:49;;;;;;;4.25;2.97;;;13.80;99.90;;;;;;4962333;28;20220;-91
2023/08/05 03:26:14;;;;;;;5.32;3.20;;;13.80;99.90;;;;;;4962299;28;20181;-91
2023/08/05 03:28:40;;;;;;;3.67;3.03;;;13.80;99.90;;;;;;4961971;28;20192;-91
2023/08/05 03:31:22;;;;;;;4.63;2.85;;;13.70;99.90;;;;;;4962243;28;20185;-91
2023/08/05 03:33:48;;;;;;;6.40;3.00;;;13.80;99.90;;;;;;4962013;28;20181;-91
2023/08/05 03:36:13;;;;;;;7.47;2.78;;;13.80;99.90;;;;;;4979323;28;20662;-91
2023/08/05 03:38:39;;;;;;;7.07;3.28;;;13.80;99.90;;;;;;4961946;28;20597;-91
2023/08/05 03:41:06;;;;;;;2.92;2.30;;;13.80;99.90;;;;;;4961652;28;20184;-91
2023/08/05 03:43:32;;;;;;;6.53;3.08;;;13.80;99.90;;;;;;4961161;28;20216;-92
2023/08/05 03:45:58;;;;;;;5.70;3.00;;;13.80;99.90;;;;;;4961564;28;20208;-91
2023/08/05 03:48:23;;;;;;;4.57;3.20;;;13.80;99.90;;;;;;4961353;28;20181;-91
2023/08/05 03:50:49;;;;;;;7.05;3.28;;;13.80;99.90;;;;;;4961733;28;20263;-90
2023/08/05 03:53:15;;;;;;;5.00;3.10;;;13.90;99.90;;;;;;4961779;28;20698;-91
2023/08/05 03:55:41;;;;;;;4.80;3.45;;;13.90;99.90;;;;;;4961187;28;20191;-91
2023/08/05 03:58:07;;;;;;;5.07;3.58;;;14.00;99.90;;;;;;4961683;28;20637;-91
2023/08/05 04:00:34;;;;;;;6.60;3.35;;;14.00;99.90;;;;;;4977699;28;20201;-90
2023/08/05 04:03:00;;;;;;;3.83;3.20;;;14.00;99.90;;;;;;4961341;28;20216;-90
2023/08/05 04:05:26;;;;;;;8.02;3.70;;;14.00;99.90;;;;;;4961404;28;20176;-91
2023/08/05 04:07:53;;;;;;;6.22;3.70;;;14.00;99.90;;;;;;4980165;28;20627;-91
2023/08/05 04:10:21;;;;;;;6.57;4.05;;;14.00;99.90;;;;;;4980286;28;20195;-91
2023/08/05 04:12:47;;;;;;;3.95;3.40;;;14.00;99.90;;;;;;4980722;28;20180;-90
2023/08/05 04:15:14;;;;;;;7.47;4.00;;;14.00;99.90;;;;;;4980409;28;20172;-90
2023/08/05 04:17:40;;;;;;;4.55;3.50;;;14.10;99.90;;;;;;4980946;28;20180;-90
2023/08/05 04:20:06;;;;;;;6.93;3.30;;;14.10;99.90;;;;;;4980465;28;20186;-91
2023/08/05 04:22:36;;;;;;;6.93;3.85;;;14.10;99.90;;;;;;4980566;28;20235;-93
2023/08/05 04:25:02;;;;;;;7.10;3.90;;;14.10;99.90;;;;;;4980607;28;20230;-91
2023/08/05 04:27:28;;;;;;;7.22;4.20;;;14.20;99.90;;;;;;4980270;28;20180;-92
2023/08/05 04:29:53;;;;;;;7.57;4.03;;;14.20;99.90;;;;;;4980482;28;20195;-91
2023/08/05 04:32:26;;;;;;;6.70;4.05;;;14.20;99.90;;;;;;4985553;28;20187;-91
2023/08/05 04:34:52;;;;;;;6.90;4.30;;;14.30;99.90;;;;;;4999719;28;20618;-90
2023/08/05 04:37:19;;;;;;;6.05;4.20;;;14.20;99.90;;;;;;4999628;28;20179;-92
2023/08/05 04:39:45;;;;;;;7.35;4.80;;;14.30;99.90;;;;;;4999526;28;20179;-91
2023/08/05 04:42:20;;;;;;;10.60;4.18;;;14.30;99.90;;;;;;4999647;28;20211;-91
2023/08/05 04:44:46;;;;;;;6.10;4.60;;;14.30;99.90;;;;;;4999977;28;20245;-91
2023/08/05 04:47:12;;;;;;;6.95;4.30;;;14.40;99.90;;;;;;4999444;28;20553;-91
2023/08/05 04:49:42;;;;;;;7.28;4.30;;;14.40;99.90;;;;;;4999890;28;20183;-91
2023/08/05 04:52:13;;;;;;;7.25;4.40;;;14.40;99.90;;;;;;4999617;28;20209;-91
2023/08/05 04:54:41;;;;;;;4.13;3.55;;;14.50;99.90;;;;;;4999142;28;20183;-91
2023/08/05 04:57:07;;;;;;;6.75;4.18;;;14.50;99.90;;;;;;4999650;28;20175;-91
2023/08/05 04:59:33;;;;;;;6.28;3.70;;;14.50;99.90;;;;;;4999325;28;20171;-91
2023/08/05 05:02:02;;;;;;;5.47;4.40;;;14.50;99.90;;;;;;4999137;28;20194;-90
2023/08/05 05:04:28;;;;;;;6.40;4.03;;;14.50;99.90;;;;;;4999017;28;20215;-89
2023/08/05 05:06:54;;;;;;;4.55;4.13;;;14.50;99.90;;;;;;4998231;28;20179;-90
2023/08/05 05:09:19;;;;;;;6.15;4.30;;;14.50;99.90;;;;;;4998461;28;20262;-90
2023/08/05 05:11:49;;;;;;;7.03;4.57;;;14.50;99.90;;;;;;4999058;28;20171;-91
2023/08/05 05:14:15;;;;;;;7.63;4.07;;;14.50;99.90;;;;;;4999004;28;20195;-90
2023/08/05 05:16:41;;;;;;;8.43;4.18;;;14.50;99.90;;;;;;4999076;28;20171;-91
2023/08/05 05:19:07;;;;;;;10.00;4.20;;;14.60;99.90;;;;;;4981758;28;20693;-91
2023/08/05 05:21:33;;;;;;;11.40;4.32;;;14.60;99.90;;;;;;4979469;28;20263;-90
2023/08/05 05:23:58;;;;;;;5.65;4.30;;;14.60;99.90;;;;;;4979213;28;20214;-90
2023/08/05 05:26:25;;;;;;;7.68;4.55;;;14.70;99.90;;;;;;4979373;28;20187;-90
2023/08/05 05:28:50;;;;;;;6.03;4.50;;;14.70;99.90;;;;;;4979340;28;20184;-90
2023/08/05 05:31:16;;;;;;;5.35;4.68;;;14.70;99.90;;;;;;4979265;28;20563;-91
2023/08/05 05:33:47;;;;;;;6.25;4.50;;;14.70;99.90;;;;;;4979859;28;20272;-91
2023/08/05 05:36:13;;;;;;;8.05;5.15;;;14.80;99.90;;;;;;4980014;28;20950;-91
2023/08/05 05:38:39;;;;;;;8.93;5.40;;;14.80;99.90;;;;;;4979451;28;20183;-93
2023/08/05 05:41:04;;;;;;;6.63;5.35;;;14.80;99.90;;;;;;4979169;28;20219;-92
2023/08/05 05:43:30;;;;;;;7.40;4.80;;;14.90;99.90;;;;;;4979351;28;20212;-91
2023/08/05 05:45:56;;;;;;;8.52;5.88;;;14.90;99.90;;;;;;4978978;28;20559;-91
2023/08/05 05:48:23;;;;;;;6.38;5.60;;;14.90;99.90;;;;;;4983766;28;20191;-90
2023/08/05 05:50:52;;;;;;;8.15;5.47;;;14.90;99.90;;;;;;4959374;28;20183;-92
2023/08/05 05:53:18;;;;;;;6.55;5.38;;;14.90;99.90;;;;;;4958699;28;20184;-91
2023/08/05 05:55:45;;;;;;;6.93;5.80;;;15.00;99.90;;;;;;4959495;28;20180;-93
2023/08/05 05:58:11;;;;;;;6.43;5.35;;;15.00;99.90;;;;;;4959896;28;20177;-92
2023/08/05 06:00:40;;;;;;;7.78;5.35;;;15.00;99.90;;;;;;4959671;28;20515;-92
2023/08/05 06:03:13;;;;;;;10.02;5.60;;;15.00;99.90;;;;;;4959302;28;20589;-92
2023/08/05 06:05:40;;;;;;;9.13;5.70;;;15.10;99.90;;;;;;4962366;28;20569;-93
2023/08/05 06:08:05;;;;;;;7.72;5.43;;;15.10;99.90;;;;;;4963758;28;20236;-93
2023/08/05 06:10:37;;;;;;;8.10;5.28;;;15.20;99.90;;;;;;4961623;28;20173;-92
2023/08/05 06:13:07;;;;;;;8.55;5.50;;;15.30;99.90;;;;;;4998685;28;20178;-92
2023/08/05 06:15:33;;;;;;;8.85;4.93;;;15.30;99.90;;;;;;5001509;28;20175;-92
2023/08/05 06:17:59;;;;;;;10.85;5.20;;;15.30;99.90;;;;;;5002541;28;20187;-94
2023/08/05 06:20:25;;;;;;;6.18;4.70;;;15.50;99.90;;;;;;5002734;28;20252;-93
2023/08/05 06:23:09;;;;;;;5.78;4.45;;;15.60;99.90;;;;;;5004908;28;20585;-92
2023/08/05 06:25:35;;;;;;;9.57;4.13;;;15.60;99.90;;;;;;5003407;28;20517;-91
2023/08/05 06:28:02;;;;;;;6.07;4.00;;;15.70;99.90;;;;;;4995900;28;20179;-91
2023/08/05 06:30:29;;;;;;;7.05;4.82;;;15.70;99.90;;;;;;4989979;28;20187;-92
2023/08/05 06:32:55;;;;;;;9.30;3.83;;;15.80;99.90;;;;;;4966841;28;20188;-95
2023/08/05 06:35:21;;;;;;;6.65;3.53;;;15.80;99.90;;;;;;4961042;28;20176;-94
2023/08/05 06:37:48;;;;;;;5.80;3.45;;;15.80;99.90;;;;;;4963238;28;20183;-92
2023/08/05 06:40:15;;;;;;;4.70;3.03;;;15.90;99.90;;;;;;4986009;28;20179;-93
2023/08/05 06:42:43;;;;;;;6.43;3.10;;;16.00;99.90;;;;;;4984991;28;20275;-95
2023/08/05 06:45:09;;;;;;;5.10;3.03;;;16.00;99.90;;;;;;4977541;28;20196;-92
2023/08/05 06:47:35;;;;;;;5.03;3.05;;;16.10;99.90;;;;;;4996150;28;20176;-93
2023/08/05 06:50:06;;;;;;;7.32;3.38;;;16.20;99.90;;;;;;4978094;28;20188;-91
2023/08/05 06:52:32;;;;;;;5.07;3.25;;;16.30;99.90;;;;;;4977702;28;20169;-91
2023/08/05 06:55:00;;;;;;;7.18;3.33;;;16.30;99.90;;;;;;4977991;28;20172;-93
2023/08/05 06:57:26;;;;;;;6.75;2.70;;;16.30;99.90;;;;;;4977972;28;20179;-93
2023/08/05 06:59:52;;;;;;;6.03;2.50;;;16.30;99.90;;;;;;4978423;28;20516;-93
2023/08/05 07:02:18;;;;;;;4.47;3.00;;;16.30;99.90;;;;;;4977382;28;20318;-93
2023/08/05 07:04:45;;;;;;;4.97;2.72;;;16.40;99.90;;;;;;4978215;28;20211;-93
2023/08/05 07:07:11;;;;;;;5.20;2.78;;;16.50;99.90;;;;;;4973946;28;20176;-93
2023/08/05 07:09:37;;;;;;;5.80;2.75;;;16.60;99.90;;;;;;4958242;28;20291;-94
2023/08/05 07:12:03;;;;;;;6.57;2.70;;;16.70;99.90;;;;;;4958821;28;20259;-93
2023/08/05 07:14:32;;;;;;;4.85;2.35;;;16.80;99.90;;;;;;4958101;28;20207;-93
2023/08/05 07:16:58;;;;;;;6.57;2.50;;;16.90;99.90;;;;;;4958875;28;20228;-94
2023/08/05 07:19:24;;;;;;;5.10;2.05;;;17.00;99.90;;;;;;4994552;28;20549;-94
2023/08/05 07:21:50;;;;;;;7.55;2.58;;;17.10;99.90;;;;;;4997363;28;20180;-93
2023/08/05 07:24:21;;;;;;;3.92;2.30;;;17.20;99.90;;;;;;4989492;28;20211;-94
2023/08/05 07:26:47;;;;;;;4.65;2.10;;;17.30;99.90;;;;;;4978216;28;20553;-94
2023/08/05 07:29:13;;;;;;;4.53;2.00;;;17.40;99.90;;;;;;4978738;28;20183;-96
2023/08/05 07:31:38;;;;;;;3.78;1.95;;;17.60;99.90;;;;;;4981836;28;20191;-93
2023/08/05 07:34:31;;;;;;;5.93;2.10;;;17.70;99.90;;;;;;4981026;28;20180;-93
2023/08/05 07:36:58;;;;;;;5.15;1.80;;;17.90;99.90;;;;;;4981529;28;20172;-94
2023/08/05 07:39:27;;;;;;;5.43;1.75;;;17.90;99.90;;;;;;4980856;28;20762;-95
2023/08/05 07:41:53;;;;;;;4.15;1.88;;;18.00;99.90;;;;;;4981508;28;20180;-95
2023/08/05 07:44:20;;;;;;;7.22;2.17;;;18.00;99.90;;;;;;4981297;28;20230;-95
2023/08/05 07:46:47;;;;;;;6.75;1.83;;;18.10;99.90;;;;;;4980584;28;20176;-95
2023/08/05 07:49:13;;;;;;;8.70;2.30;;;18.20;99.90;;;;;;4982074;28;20184;-96
2023/08/05 07:51:45;;;;;;;6.68;1.80;;;18.30;99.90;;;;;;4981107;28;20622;-96
2023/08/05 07:54:16;;;;;;;5.25;1.80;;;18.40;99.90;;;;;;4981336;28;20246;-95
2023/08/05 07:56:42;;;;;;;4.95;1.98;;;18.40;99.90;;;;;;4981513;28;20607;-96
2023/08/05 07:59:08;;;;;;;5.53;1.70;;;18.50;99.90;;;;;;4981187;28;20183;-95
2023/08/05 08:01:34;;;;;;;5.63;1.90;;;18.60;99.90;;;;;;4981675;28;20184;-94
2023/08/05 08:04:04;;;;;;;8.13;2.63;;;18.70;99.90;;;;;;5000418;28;20214;-96
2023/08/05 08:06:32;;;;;;;10.38;1.90;;;18.70;99.90;;;;;;5000786;28;20242;-95
2023/08/05 08:08:57;;;;;;;8.52;2.42;;;18.60;99.90;;;;;;5000203;28;20704;-93
2023/08/05 08:11:23;;;;;;;5.82;1.90;;;18.60;99.90;;;;;;5000425;28;20179;-94
2023/08/05 08:13:53;;;;;;;5.07;1.80;;;18.70;99.90;;;;;;5000172;28;20259;-94
2023/08/05 08:16:20;;;;;;;7.22;1.83;;;18.70;99.90;;;;;;5000408;28;20214;-93
2023/08/05 08:18:46;;;;;;;5.68;1.65;;;18.80;99.90;;;;;;4986877;28;20191;-95
2023/08/05 08:21:11;;;;;;;7.53;1.80;;;18.80;99.90;;;;;;4980629;28;20183;-93
2023/08/05 08:23:37;;;;;;;3.75;1.80;;;18.90;99.90;;;;;;4980371;28;20211;-94
2023/08/05 08:26:05;;;;;;;3.15;1.50;;;18.90;99.90;;;;;;4980985;28;20200;-92
2023/08/05 08:28:31;;;;;;;4.57;1.63;;;19.00;99.90;;;;;;4980591;28;20187;-96
2023/08/05 08:30:57;;;;;;;4.97;1.70;;;19.20;99.90;;;;;;4980362;28;20599;-94
2023/08/05 08:33:28;;;;;;;6.85;1.60;;;19.20;99.90;;;;;;4980085;28;20535;-95
2023/08/05 08:35:55;;;;;;;5.50;1.63;;;19.00;99.90;;;;;;4980518;28;20256;-94
2023/08/05 08:38:24;;;;;;;5.35;1.67;;;19.10;99.90;;;;;;4980538;28;20184;-94
2023/08/05 08:41:02;;;;;;;3.67;1.50;;;19.10;99.90;;;;;;4980106;28;20183;-94
2023/08/05 08:43:28;;;;;;;6.18;2.00;;;19.20;99.90;;;;;;4980434;28;20215;-94
2023/08/05 08:45:58;;;;;;;4.93;1.77;;;19.30;99.90;;;;;;4980276;28;20267;-95
2023/08/05 08:48:24;;;;;;;3.63;1.85;;;19.30;99.90;;;;;;4979984;28;20187;-95
2023/08/05 08:50:52;;;;;;;3.58;1.60;;;19.40;99.90;;;;;;4980466;28;20495;-95
2023/08/05 08:53:20;;;;;;;4.30;2.20;;;19.60;99.90;;;;;;4980480;28;20178;-95
2023/08/05 08:55:49;;;;;;;4.10;1.65;;;19.60;99.90;;;;;;4979811;28;20611;-91
2023/08/05 08:58:15;;;;;;;3.83;1.67;;;19.80;99.90;;;;;;4980507;28;20491;-94
2023/08/05 09:00:41;;;;;;;4.97;1.73;;;19.90;99.90;;;;;;4985521;28;20179;-95
2023/08/05 09:03:07;;;;;;;3.20;1.60;;;20.00;99.90;;;;;;4998039;28;20210;-94
2023/08/05 09:05:49;;;;;;;6.90;2.03;;;20.00;99.90;;;;;;4998819;28;20171;-95
2023/08/05 09:08:15;;;;;;;4.40;1.80;;;20.10;99.90;;;;;;4999076;28;20230;-96
2023/08/05 09:10:43;;;;;;;4.93;1.77;;;20.10;99.90;;;;;;4999593;28;20511;-96
2023/08/05 09:13:09;;;;;;;5.70;1.80;;;20.10;99.90;;;;;;5001200;28;20237;-96
2023/08/05 09:15:59;;;;;;;8.38;1.58;;;20.00;99.90;;;;;;4999765;28;20175;-96
2023/08/05 09:18:25;;;;;;;5.75;1.50;;;19.70;99.90;;;;;;4999210;28;20179;-95
2023/08/05 09:20:52;;;;;;;3.92;1.55;;;19.50;99.90;;;;;;5000236;28;20228;-96
2023/08/05 09:23:18;;;;;;;5.25;1.90;;;19.30;99.90;;;;;;4999167;28;20199;-94
2023/08/05 09:25:48;;;;;;;4.05;1.77;;;19.10;99.90;;;;;;4998912;28;20510;-94
2023/08/05 09:28:29;;;;;;;3.00;1.70;;;19.00;99.90;;;;;;4999198;28;20171;-93
2023/08/05 09:31:16;;;;;;;5.25;1.80;;;19.00;99.90;;;;;;4998774;28;20225;-94
2023/08/05 09:33:43;;;;;;;5.22;2.10;;;18.90;99.90;;;;;;4998935;28;20504;-94
2023/08/05 09:36:11;;;;;;;3.15;1.80;;;18.80;99.90;;;;;;4998968;28;20175;-94
2023/08/05 09:38:39;;;;;;;2.90;1.50;;;18.80;99.90;;;;;;4998927;28;20175;-95
2023/08/05 09:41:06;;;;;;;4.28;1.73;;;18.80;99.90;;;;;;4983477;28;20179;-95
2023/08/05 09:43:34;;;;;;;6.07;1.80;;;18.80;99.90;;;;;;4979260;28;20654;-95
2023/08/05 09:46:04;;;;;;;4.53;1.70;;;18.80;99.90;;;;;;4979159;28;20214;-92
2023/08/05 09:48:41;;;;;;;5.35;1.98;;;18.80;99.90;;;;;;4979259;28;20215;-94
2023/08/05 09:51:08;;;;;;;5.38;1.88;;;18.80;99.90;;;;;;4979110;28;20175;-95
2023/08/05 09:53:38;;;;;;;4.65;1.73;;;18.90;99.90;;;;;;4979037;28;20195;-94
2023/08/05 09:56:26;;;;;;;4.85;1.73;;;18.90;99.90;;;;;;4979175;28;20182;-96
2023/08/05 09:58:53;;;;;;;3.83;1.63;;;18.90;99.90;;;;;;4979021;28;20176;-95
2023/08/05 10:01:19;;;;;;;3.80;1.63;;;19.00;99.90;;;;;;4978862;28;20176;-93
2023/08/05 10:03:47;;;;;;;3.03;1.40;;;18.90;99.90;;;;;;4978525;28;20211;-93
2023/08/05 10:06:22;;;;;;;2.72;1.60;;;19.00;99.90;;;;;;4978717;28;20612;-95
2023/08/05 10:08:48;;;;;;;5.40;1.70;;;19.00;99.90;;;;;;4978564;28;20293;-93
2023/08/05 10:11:15;;;;;;;3.15;1.65;;;19.10;99.90;;;;;;4994887;28;20187;-93
2023/08/05 10:13:44;;;;;;;3.95;1.63;;;19.20;99.90;;;;;;4997912;28;20600;-95
2023/08/05 10:16:18;;;;;;;5.47;1.73;;;19.30;99.90;;;;;;4998218;28;20202;-96
2023/08/05 10:18:45;;;;;;;4.07;1.73;;;19.30;99.90;;;;;;4998180;28;20171;-94
2023/08/05 10:21:11;;;;;;;4.57;1.80;;;19.30;99.90;;;;;;4998256;28;20249;-95
2023/08/05 10:23:39;;;;;;;4.75;2.08;;;19.20;99.90;;;;;;4971266;28;20997;-93
2023/08/05 10:26:07;;;;;;;3.45;1.80;;;19.10;99.90;;;;;;4977862;28;20199;-94
2023/08/05 10:28:39;;;;;;;4.85;1.73;;;19.10;99.90;;;;;;4977967;28;20270;-95
2023/08/05 10:31:06;;;;;;;3.78;1.70;;;19.10;99.90;;;;;;4978018;28;20188;-95
2023/08/05 10:33:52;;;;;;;3.83;2.08;;;19.20;99.90;;;;;;4977145;28;20275;-95
2023/08/05 10:36:18;;;;;;;5.10;1.90;;;19.20;99.90;;;;;;4977503;28;20191;-95
2023/08/05 10:38:43;;;;;;;3.83;1.83;;;19.40;99.90;;;;;;4977693;28;20184;-95
2023/08/05 10:41:10;;;;;;;5.75;1.85;;;19.60;99.90;;;;;;4976346;28;20188;-94
2023/08/05 10:43:38;;;;;;;3.72;1.52;;;19.80;99.90;;;;;;4977151;28;20211;-92
2023/08/05 10:46:08;;;;;;;2.20;1.60;;;20.00;99.90;;;;;;4991887;28;20184;-94
2023/08/05 10:48:45;;;;;;;5.40;2.03;;;20.20;99.90;;;;;;4973713;28;20338;-94
2023/08/05 10:51:19;;;;;;;4.00;1.80;;;20.60;99.90;;;;;;4967997;28;20179;-94
2023/08/05 10:53:58;;;;;;;2.80;1.40;;;20.90;99.90;;;;;;4977606;28;20234;-96
2023/08/05 10:56:35;;;;;;;3.50;1.60;;;21.10;99.90;;;;;;4978145;28;20278;-94
2023/08/05 10:59:02;;;;;;;3.25;1.60;;;21.30;99.90;;;;;;4978988;28;20735;-96
2023/08/05 11:01:56;;;;;;;8.60;2.20;;;21.10;99.90;;;;;;4978143;28;20195;-93
2023/08/05 11:04:29;;;;;;;3.15;1.40;;;20.90;99.90;;;;;;4977965;28;20204;-94
2023/08/05 11:07:15;;;;;;;3.70;1.60;;;20.60;99.90;;;;;;4981372;28;20581;-95
2023/08/05 11:09:42;;;;;;;4.10;1.73;;;20.50;99.90;;;;;;4973356;28;20306;-94
2023/08/05 11:12:08;;;;;;;4.43;1.80;;;20.30;99.90;;;;;;4981105;28;20219;-90
2023/08/05 11:14:34;;;;;;;3.63;1.80;;;20.30;99.90;;;;;;4981017;28;20266;-91
2023/08/05 11:17:03;;;;;;;4.70;1.88;;;20.30;99.90;;;;;;4980530;28;20200;-94
2023/08/05 11:19:49;;;;;;;4.78;1.67;;;20.30;99.90;;;;;;4979981;28;20180;-89
2023/08/05 11:22:33;;;;;;;2.45;1.50;;;20.20;99.90;;;;;;4961779;28;20216;-94
2023/08/05 11:25:01;;;;;;;3.50;1.67;;;20.30;99.90;;;;;;4969685;28;20216;-95
2023/08/05 11:27:39;;;;;;;4.20;1.85;;;20.30;99.90;;;;;;4978094;28;20187;-96
2023/08/05 11:30:18;;;;;;;3.00;1.60;;;20.30;99.90;;;;;;4981162;28;20238;-91
2023/08/05 11:33:02;;;;;;;3.63;1.63;;;20.30;99.90;;;;;;4993838;28;20184;-94
2023/08/05 11:35:28;;;;;;;5.45;1.90;;;20.40;99.90;;;;;;4962549;28;20621;-92
2023/08/05 11:37:56;;;;;;;2.92;1.63;;;20.60;99.90;;;;;;4962094;28;20185;-91
2023/08/05 11:40:23;;;;;;;5.65;1.73;;;20.60;99.90;;;;;;4961925;28;20176;-90
2023/08/05 11:42:49;;;;;;;4.70;1.70;;;20.70;99.90;;;;;;4961981;28;20181;-91
2023/08/05 11:45:16;;;;;;;4.63;1.60;;;20.80;99.90;;;;;;4961682;28;20188;-88
2023/08/05 11:47:44;;;;;;;5.63;1.98;;;20.80;99.90;;;;;;4961657;28;20185;-93
2023/08/05 11:50:12;;;;;;;3.70;1.85;;;20.90;99.90;;;;;;4979048;28;20169;-91
2023/08/05 11:52:39;;;;;;;2.45;1.60;;;20.80;99.90;;;;;;4961659;28;20257;-92
2023/08/05 11:55:07;;;;;;;3.63;1.80;;;20.80;99.90;;;;;;4961562;28;20191;-90
2023/08/05 11:57:40;;;;;;;4.70;1.85;;;20.90;99.90;;;;;;4961682;28;20856;-93
2023/08/05 12:00:09;;;;;;;3.97;1.70;;;20.90;99.90;;;;;;4962227;28;20180;-92
2023/08/05 12:02:37;;;;;;;3.42;1.55;;;21.00;99.90;;;;;;4961376;28;20177;-91
2023/08/05 12:05:04;;;;;;;3.05;1.48;;;21.00;99.90;;;;;;4961549;28;20193;-96
2023/08/05 12:07:30;;;;;;;2.42;1.60;;;21.10;99.90;;;;;;4962057;28;20232;-93
2023/08/05 12:10:10;;;;;;;4.28;1.90;;;21.10;99.90;;;;;;4961554;28;20235;-94
2023/08/05 12:12:37;;;;;;;3.72;1.90;;;21.00;99.90;;;;;;4961515;28;20180;-92
2023/08/05 12:15:26;;;;;;;4.00;1.80;;;20.90;99.90;;;;;;4961048;28;20223;-89
2023/08/05 12:18:00;;;;;;;2.83;1.85;;;20.90;99.90;;;;;;4961180;28;20177;-92
2023/08/05 12:20:39;;;;;;;3.80;1.85;;;21.00;99.90;;;;;;4961325;28;20176;-92
2023/08/05 12:23:06;;;;;;;3.83;1.70;;;21.20;99.90;;;;;;4961176;28;20239;-93
2023/08/05 12:25:32;;;;;;;3.78;1.85;;;21.20;99.90;;;;;;4961064;28;20181;-92
2023/08/05 12:28:04;;;;;;;3.65;2.05;;;21.20;99.90;;;;;;4961376;28;20177;-94
2023/08/05 12:30:30;;;;;;;4.88;2.30;;;21.10;99.90;;;;;;4961241;28;20271;-93
2023/08/05 12:32:57;;;;;;;7.15;1.98;;;21.10;99.90;;;;;;4960881;28;20203;-92
2023/08/05 12:35:24;;;;;;;7.75;2.08;;;21.00;99.90;;;;;;4961328;28;20188;-93
2023/08/05 12:38:08;;;;;;;3.95;2.03;;;20.90;99.90;;;;;;4961148;28;20662;-94
2023/08/05 12:40:34;;;;;;;3.83;1.90;;;20.90;99.90;;;;;;4961135;28;20181;-95
2023/08/05 12:43:00;;;;;;;2.22;1.63;;;20.80;99.90;;;;;;4960967;28;20279;-94
2023/08/05 12:45:26;;;;;;;3.42;2.25;;;21.00;99.90;;;;;;4961135;28;20181;-94
2023/08/05 12:48:00;;;;;;;5.15;2.00;;;21.20;99.90;;;;;;4964423;28;20195;-93
2023/08/05 12:50:26;;;;;;;3.35;1.70;;;21.40;99.90;;;;;;4980227;28;20175;-90
2023/08/05 12:52:52;;;;;;;3.70;1.85;;;21.60;99.90;;;;;;4997224;28;20603;-88